Time;durP1;ratioP1;P1;durP2;ratioP2;P2;SDS_P1;SDS_P2;PMS_P1;PMS_P2;Temp;Humidity;BMP_temperature;BMP_pressure;BME280_temperature;BME280_humidity;BME280_pressure;Samples;Min_cycle;Max_cycle;Signal;HPM_P1;HPM_P2
2022/09/24 00:00:42;;;;;;;;;;;9.60;99.90;;;;;;5008546;28;19933;-72
2022/09/24 00:03:09;;;;;;;;;;;9.60;99.90;;;;;;5010194;28;19973;-73
2022/09/24 00:05:38;;;;;;;;;;;9.60;99.90;;;;;;5010573;28;20375;-72
2022/09/24 00:08:06;;;;;;;;;;;9.70;99.90;;;;;;5009778;28;20691;-72
2022/09/24 00:10:37;;;;;;;;;;;9.60;99.90;;;;;;5008697;28;19983;-72
2022/09/24 00:13:04;;;;;;;;;;;9.70;99.90;;;;;;5008708;28;19929;-72
2022/09/24 00:15:31;;;;;;;;;;;9.70;99.90;;;;;;5010530;28;20337;-72
2022/09/24 00:17:58;;;;;;;;;;;9.70;99.90;;;;;;5008502;28;20028;-72
2022/09/24 00:20:25;;;;;;;;;;;9.70;99.90;;;;;;5009336;28;19930;-72
2022/09/24 00:22:53;;;;;;;;;;;9.70;99.90;;;;;;4999362;28;20353;-72
2022/09/24 00:28:05;;;;;;;;;;;9.70;99.90;;;;;;5007332;28;20039;-72
2022/09/24 00:30:32;;;;;;;;;;;9.70;99.90;;;;;;5008652;28;19952;-72
2022/09/24 00:32:59;;;;;;;;;;;9.70;99.90;;;;;;5002085;28;20315;-72
2022/09/24 00:35:26;;;;;;;;;;;9.70;99.90;;;;;;5010365;28;19973;-71
2022/09/24 00:37:55;;;;;;;;;;;9.70;99.90;;;;;;5008424;28;19929;-72
2022/09/24 00:40:27;;;;;;;;;;;9.70;99.90;;;;;;5009959;28;19972;-71
2022/09/24 00:42:55;;;;;;;;;;;9.60;99.90;;;;;;5010939;28;20360;-71
2022/09/24 00:45:22;;;;;;;;;;;9.60;99.90;;;;;;5007390;28;19934;-71
2022/09/24 00:47:51;;;;;;;;;;;9.60;99.90;;;;;;5010861;28;19941;-72
2022/09/24 00:50:20;;;;;;;;;;;9.60;99.90;;;;;;5009921;28;20029;-73
2022/09/24 00:52:51;;;;;;;;;;;9.60;99.90;;;;;;5010123;28;19937;-72
2022/09/24 00:55:22;;;;;;;;;;;9.60;99.90;;;;;;5007745;28;19930;-72
2022/09/24 00:57:51;;;;;;;;;;;9.60;99.90;;;;;;5009044;28;19940;-72
2022/09/24 01:00:19;;;;;;;;;;;9.60;99.90;;;;;;5010998;28;19952;-72
2022/09/24 01:02:48;;;;;;;;;;;9.60;99.90;;;;;;5010108;28;19977;-72
2022/09/24 01:05:15;;;;;;;;;;;9.70;99.90;;;;;;5023497;28;19952;-72
2022/09/24 01:07:42;;;;;;;;;;;9.70;99.90;;;;;;5007631;28;19933;-73
2022/09/24 01:10:09;;;;;;;;;;;9.60;99.90;;;;;;5010547;28;19929;-72
2022/09/24 01:12:47;;;;;;;;;;;9.60;99.90;;;;;;5010428;28;20015;-72
2022/09/24 01:15:20;;;;;;;;;;;9.70;99.90;;;;;;5009239;28;20356;-72
2022/09/24 01:17:53;;;;;;;;;;;9.60;99.90;;;;;;5009862;28;19936;-73
2022/09/24 01:20:56;;;;;;;;;;;9.70;99.90;;;;;;5010388;28;19944;-72
2022/09/24 01:23:36;;;;;;;;;;;9.70;99.90;;;;;;4998541;28;19930;-72
2022/09/24 01:26:17;;;;;;;;;;;9.70;99.90;;;;;;5010167;28;19938;-72
2022/09/24 01:28:54;;;;;;;;;;;9.70;99.90;;;;;;5008069;28;19929;-72
2022/09/24 01:31:27;;;;;;;;;;;9.70;99.90;;;;;;5010272;28;19933;-72
2022/09/24 01:33:54;;;;;;;;;;;9.70;99.90;;;;;;5008358;28;19957;-72
2022/09/24 01:36:22;;;;;;;;;;;9.70;99.90;;;;;;5009159;28;19929;-72
2022/09/24 01:38:52;;;;;;;;;;;9.70;99.90;;;;;;5010691;28;19964;-72
2022/09/24 01:41:19;;;;;;;;;;;9.70;99.90;;;;;;5011262;28;19936;-72
2022/09/24 01:43:47;;;;;;;;;;;9.70;99.90;;;;;;5012114;28;19929;-73
2022/09/24 01:46:15;;;;;;;;;;;9.70;99.90;;;;;;5029037;28;19968;-73
2022/09/24 01:48:44;;;;;;;;;;;9.70;99.90;;;;;;5013590;28;19933;-72
2022/09/24 01:51:16;;;;;;;;;;;9.70;99.90;;;;;;5010809;28;19973;-73
2022/09/24 01:53:47;;;;;;;;;;;9.70;99.90;;;;;;5012242;28;19939;-72
2022/09/24 01:56:18;;;;;;;;;;;9.70;99.90;;;;;;5011210;28;20019;-72
2022/09/24 01:58:50;;;;;;;;;;;9.70;99.90;;;;;;5011289;28;20286;-72
2022/09/24 02:01:19;;;;;;;;;;;9.80;99.90;;;;;;5009869;28;20466;-73
2022/09/24 02:03:52;;;;;;;;;;;9.80;99.90;;;;;;5007907;28;20441;-72
2022/09/24 02:06:22;;;;;;;;;;;9.80;99.90;;;;;;5020964;28;19975;-72
2022/09/24 02:08:49;;;;;;;;;;;9.80;99.90;;;;;;5011595;28;20441;-72
2022/09/24 02:11:18;;;;;;;;;;;9.80;99.90;;;;;;5009733;28;19934;-72
2022/09/24 02:13:48;;;;;;;;;;;9.80;99.90;;;;;;5012252;28;20036;-73
2022/09/24 02:16:18;;;;;;;;;;;9.90;99.90;;;;;;5012435;28;19933;-72
2022/09/24 02:18:50;;;;;;;;;;;9.80;99.90;;;;;;5011536;28;19930;-72
2022/09/24 02:21:18;;;;;;;;;;;9.80;99.90;;;;;;5012903;28;20337;-72
2022/09/24 02:23:48;;;;;;;;;;;9.90;99.90;;;;;;5013942;28;20605;-72
2022/09/24 02:26:15;;;;;;;;;;;9.90;99.90;;;;;;5012490;28;19936;-72
2022/09/24 02:28:42;;;;;;;;;;;9.90;99.90;;;;;;5010495;28;19937;-73
2022/09/24 02:31:11;;;;;;;;;;;9.90;99.90;;;;;;5012146;28;20255;-73
2022/09/24 02:36:28;;;;;;;;;;;9.90;99.90;;;;;;5027026;28;20325;-73
2022/09/24 02:38:55;;;;;;;;;;;9.90;99.90;;;;;;5012446;28;20353;-73
2022/09/24 02:41:23;;;;;;;;;;;9.90;99.90;;;;;;5012446;28;20374;-73
2022/09/24 02:43:50;;;;;;;;;;;9.90;99.90;;;;;;5010555;28;19935;-73
2022/09/24 02:46:18;;;;;;;;;;;10.00;99.90;;;;;;5010201;28;19933;-72
2022/09/24 02:48:45;;;;;;;;;;;9.90;99.90;;;;;;5011725;28;19930;-72
2022/09/24 02:51:12;;;;;;;;;;;9.90;99.90;;;;;;5013802;28;19937;-72
2022/09/24 02:53:41;;;;;;;;;;;9.90;99.90;;;;;;5008569;28;19951;-72
2022/09/24 02:56:08;;;;;;;;;;;10.00;99.90;;;;;;5012818;28;20398;-72
2022/09/24 02:58:36;;;;;;;;;;;10.00;99.90;;;;;;5025462;28;20365;-72
2022/09/24 03:01:04;;;;;;;;;;;10.00;99.90;;;;;;4994595;28;19941;-72
2022/09/24 03:03:31;;;;;;;;;;;10.00;99.90;;;;;;5007128;28;19957;-72
2022/09/24 03:05:58;;;;;;;;;;;10.10;99.90;;;;;;5006402;28;20327;-72
2022/09/24 03:08:25;;;;;;;;;;;10.10;99.90;;;;;;5027783;28;19929;-73
2022/09/24 03:10:54;;;;;;;;;;;10.10;99.90;;;;;;5017085;28;19929;-73
2022/09/24 03:13:22;;;;;;;;;;;10.10;99.90;;;;;;5000274;28;19944;-72
2022/09/24 03:15:49;;;;;;;;;;;10.10;99.90;;;;;;5013895;28;19937;-73
2022/09/24 03:18:16;;;;;;;;;;;10.10;99.90;;;;;;5019871;28;20344;-73
2022/09/24 03:20:43;;;;;;;;;;;10.10;99.90;;;;;;5025483;28;19933;-73
2022/09/24 03:23:10;;;;;;;;;;;10.10;99.90;;;;;;5016520;28;19936;-73
2022/09/24 03:25:37;;;;;;;;;;;10.10;99.90;;;;;;5016480;28;19933;-73
2022/09/24 03:28:06;;;;;;;;;;;10.10;99.90;;;;;;5026273;28;20290;-72
2022/09/24 03:33:17;;;;;;;;;;;10.10;99.90;;;;;;5016833;28;19929;-72
2022/09/24 03:35:45;;;;;;;;;;;10.10;99.90;;;;;;5010998;28;19929;-72
2022/09/24 03:38:12;;;;;;;;;;;10.20;99.90;;;;;;5018088;28;19929;-75
2022/09/24 03:40:39;;;;;;;;;;;10.10;99.90;;;;;;5017908;28;19964;-76
2022/09/24 03:43:07;;;;;;;;;;;10.10;99.90;;;;;;5011449;28;19937;-75
2022/09/24 03:45:34;;;;;;;;;;;10.20;99.90;;;;;;5026287;28;20031;-75
2022/09/24 03:48:02;;;;;;;;;;;10.20;99.90;;;;;;5025342;28;20031;-75
2022/09/24 03:50:29;;;;;;;;;;;10.30;99.90;;;;;;5029899;28;19937;-75
2022/09/24 03:52:56;;;;;;;;;;;10.30;99.90;;;;;;5027115;28;19994;-75
2022/09/24 03:55:23;;;;;;;;;;;10.30;99.90;;;;;;5012425;28;19934;-76
2022/09/24 03:57:50;;;;;;;;;;;10.30;99.90;;;;;;5011586;28;20345;-75
2022/09/24 04:00:18;;;;;;;;;;;10.30;99.90;;;;;;5008215;28;19991;-75
2022/09/24 04:02:45;;;;;;;;;;;10.20;99.90;;;;;;5014756;28;19929;-75
2022/09/24 04:05:12;;;;;;;;;;;10.20;99.90;;;;;;5018550;28;20431;-75
2022/09/24 04:07:41;;;;;;;;;;;10.10;99.90;;;;;;5014737;28;19945;-76
2022/09/24 04:10:08;;;;;;;;;;;10.00;99.90;;;;;;5010528;28;19933;-75
2022/09/24 04:12:36;;;;;;;;;;;9.90;99.90;;;;;;5008151;28;20247;-77
2022/09/24 04:15:03;;;;;;;;;;;9.90;99.90;;;;;;5021995;28;19976;-77
2022/09/24 04:17:32;;;;;;;;;;;9.80;99.90;;;;;;5015455;28;20471;-77
2022/09/24 04:20:01;;;;;;;;;;;9.70;99.90;;;;;;5012602;28;20353;-77
2022/09/24 04:22:28;;;;;;;;;;;9.70;99.90;;;;;;5022840;28;19931;-77
2022/09/24 04:24:56;;;;;;;;;;;9.60;99.90;;;;;;5009302;28;19929;-77
2022/09/24 04:27:23;;;;;;;;;;;9.60;99.90;;;;;;5008982;28;19933;-76
2022/09/24 04:29:53;;;;;;;;;;;9.60;99.90;;;;;;5008725;28;20398;-74
2022/09/24 04:32:21;;;;;;;;;;;9.60;99.90;;;;;;5010386;28;19968;-76
2022/09/24 04:34:49;;;;;;;;;;;9.70;99.90;;;;;;5003618;28;19936;-77
2022/09/24 04:37:16;;;;;;;;;;;9.70;99.90;;;;;;5009916;28;19964;-76
2022/09/24 04:39:43;;;;;;;;;;;9.60;99.90;;;;;;5009725;28;20360;-76
2022/09/24 04:42:16;;;;;;;;;;;9.60;99.90;;;;;;5010141;28;19929;-79
2022/09/24 04:44:46;;;;;;;;;;;9.60;99.90;;;;;;5011403;28;19929;-78
2022/09/24 04:47:14;;;;;;;;;;;9.60;99.90;;;;;;5008457;28;20480;-75
2022/09/24 04:49:44;;;;;;;;;;;9.50;99.90;;;;;;4999643;28;19930;-76
2022/09/24 04:52:14;;;;;;;;;;;9.50;99.90;;;;;;5012695;28;20044;-77
2022/09/24 04:54:46;;;;;;;;;;;9.50;99.90;;;;;;5012332;28;19930;-72
2022/09/24 04:57:13;;;;;;;;;;;9.50;99.90;;;;;;5013487;28;20020;-72
2022/09/24 04:59:41;;;;;;;;;;;9.50;99.90;;;;;;5008660;28;19984;-73
2022/09/24 05:02:08;;;;;;;;;;;9.40;99.90;;;;;;5011356;28;19969;-77
2022/09/24 05:04:35;;;;;;;;;;;9.40;99.90;;;;;;5011090;28;19929;-77
2022/09/24 05:07:02;;;;;;;;;;;9.50;99.90;;;;;;5005714;28;19929;-77
2022/09/24 05:09:31;;;;;;;;;;;9.50;99.90;;;;;;5005703;28;19937;-79
2022/09/24 05:11:58;;;;;;;;;;;9.40;99.90;;;;;;5016234;28;19929;-74
2022/09/24 05:14:25;;;;;;;;;;;9.50;99.90;;;;;;5019973;28;20406;-77
2022/09/24 05:16:52;;;;;;;;;;;9.50;99.90;;;;;;5013161;28;20349;-76
2022/09/24 05:19:20;;;;;;;;;;;9.50;99.90;;;;;;5013733;28;20421;-74
2022/09/24 05:21:47;;;;;;;;;;;9.50;99.90;;;;;;5016816;28;19929;-77
2022/09/24 05:24:14;;;;;;;;;;;9.60;99.90;;;;;;5018547;28;19988;-81
2022/09/24 05:29:27;;;;;;;;;;;9.70;99.90;;;;;;5009381;28;19929;-72
2022/09/24 05:31:55;;;;;;;;;;;9.70;99.90;;;;;;5011840;28;19940;-73
2022/09/24 05:34:22;;;;;;;;;;;9.70;99.90;;;;;;5006505;28;19980;-74
2022/09/24 05:36:49;;;;;;;;;;;9.80;99.90;;;;;;5008276;28;19933;-74
2022/09/24 05:39:16;;;;;;;;;;;9.80;99.90;;;;;;5008903;28;19933;-74
2022/09/24 05:41:45;;;;;;;;;;;9.90;99.90;;;;;;5012091;28;19929;-74
2022/09/24 05:44:12;;;;;;;;;;;9.90;99.90;;;;;;5008511;28;19930;-72
2022/09/24 05:46:39;;;;;;;;;;;10.00;99.90;;;;;;5012314;28;20028;-73
2022/09/24 05:49:06;;;;;;;;;;;10.00;99.90;;;;;;5012717;28;19930;-72
2022/09/24 05:51:33;;;;;;;;;;;10.10;99.90;;;;;;4994933;28;19936;-74
2022/09/24 05:54:01;;;;;;;;;;;10.10;99.90;;;;;;5011545;28;19929;-73
2022/09/24 05:56:28;;;;;;;;;;;10.20;99.90;;;;;;5014777;28;19944;-75
2022/09/24 05:58:57;;;;;;;;;;;10.20;99.90;;;;;;5028781;28;19956;-72
2022/09/24 06:01:24;;;;;;;;;;;10.30;99.90;;;;;;5012291;28;19941;-74
2022/09/24 06:03:51;;;;;;;;;;;10.40;99.90;;;;;;5011842;28;19952;-73
2022/09/24 06:06:18;;;;;;;;;;;10.40;99.90;;;;;;4995364;28;19929;-79
2022/09/24 06:08:46;;;;;;;;;;;10.50;99.90;;;;;;5014186;28;20028;-78
2022/09/24 06:11:13;;;;;;;;;;;10.60;99.90;;;;;;5011161;28;19987;-79
2022/09/24 06:13:40;;;;;;;;;;;10.70;99.90;;;;;;5027503;28;19929;-80
2022/09/24 06:16:10;;;;;;;;;;;10.80;99.90;;;;;;5013210;28;19929;-74
2022/09/24 06:18:39;;;;;;;;;;;10.90;99.90;;;;;;5011410;28;20422;-74
2022/09/24 06:21:08;;;;;;;;;;;11.00;99.90;;;;;;5008223;28;20027;-73
2022/09/24 06:23:38;;;;;;;;;;;11.10;99.90;;;;;;5009071;28;19933;-73
2022/09/24 06:26:07;;;;;;;;;;;11.20;99.90;;;;;;5009720;28;20040;-72
2022/09/24 06:28:34;;;;;;;;;;;11.30;99.90;;;;;;5010094;28;19937;-73
2022/09/24 06:31:02;;;;;;;;;;;11.50;99.90;;;;;;5006855;28;19930;-72
2022/09/24 06:33:31;;;;;;;;;;;11.60;99.90;;;;;;5009927;28;19930;-73
2022/09/24 06:36:00;;;;;;;;;;;11.80;99.90;;;;;;5022757;28;20287;-73
2022/09/24 06:38:28;;;;;;;;;;;11.90;99.90;;;;;;5017136;28;20361;-73
2022/09/24 06:40:59;;;;;;;;;;;12.20;99.90;;;;;;5019242;28;19941;-73
2022/09/24 06:43:26;;;;;;;;;;;12.50;99.90;;;;;;5002414;28;19934;-73
2022/09/24 06:45:55;;;;;;;;;;;12.90;99.90;;;;;;5004370;28;19936;-72
2022/09/24 06:48:25;;;;;;;;;;;13.40;99.90;;;;;;5005724;28;20398;-73
2022/09/24 06:50:57;;;;;;;;;;;14.10;99.90;;;;;;5007890;28;19930;-81
2022/09/24 06:53:27;;;;;;;;;;;14.70;99.90;;;;;;5005267;28;19940;-79
2022/09/24 06:56:02;;;;;;;;;;;15.40;99.90;;;;;;5010593;28;19929;-75
2022/09/24 06:58:29;;;;;;;;;;;15.90;99.90;;;;;;5006485;28;19929;-74
2022/09/24 07:00:58;;;;;;;;;;;16.10;99.90;;;;;;5009433;28;19929;-82
2022/09/24 07:03:28;;;;;;;;;;;15.90;99.90;;;;;;5012263;28;19935;-73
2022/09/24 07:06:00;;;;;;;;;;;16.40;99.90;;;;;;5008347;28;20487;-80
2022/09/24 07:08:27;;;;;;;;;;;16.90;99.90;;;;;;5011308;28;19930;-81
2022/09/24 07:10:57;;;;;;;;;;;17.30;99.90;;;;;;5012672;28;19937;-74
2022/09/24 07:13:25;;;;;;;;;;;17.10;99.90;;;;;;5010932;28;20040;-80
2022/09/24 07:15:53;;;;;;;;;;;17.20;99.90;;;;;;5010041;28;19929;-80
2022/09/24 07:18:21;;;;;;;;;;;17.70;99.90;;;;;;5010554;28;19936;-74
2022/09/24 07:20:52;;;;;;;;;;;18.00;99.90;;;;;;5011371;28;19930;-73
2022/09/24 07:23:21;;;;;;;;;;;18.30;99.90;;;;;;5009962;28;20317;-73
2022/09/24 07:25:49;;;;;;;;;;;17.80;99.90;;;;;;5014517;28;19929;-73
2022/09/24 07:28:17;;;;;;;;;;;17.80;99.90;;;;;;5020619;28;19929;-73
2022/09/24 07:30:44;;;;;;;;;;;17.70;99.90;;;;;;5019767;28;19991;-72
2022/09/24 07:33:11;;;;;;;;;;;17.40;99.90;;;;;;5010838;28;19935;-76
2022/09/24 07:35:39;;;;;;;;;;;17.10;99.90;;;;;;5009915;28;20379;-77
2022/09/24 07:38:08;;;;;;;;;;;16.90;99.90;;;;;;5007566;28;19988;-81
2022/09/24 07:40:36;;;;;;;;;;;17.00;99.90;;;;;;5003705;28;19937;-79
2022/09/24 07:43:05;;;;;;;;;;;17.30;99.90;;;;;;5010478;28;20036;-73
2022/09/24 07:45:33;;;;;;;;;;;17.40;99.90;;;;;;5010859;28;19930;-73
2022/09/24 07:48:01;;;;;;;;;;;17.30;99.90;;;;;;5012184;28;19983;-74
2022/09/24 07:50:30;;;;;;;;;;;17.40;99.90;;;;;;5012339;28;19930;-82
2022/09/24 07:52:57;;;;;;;;;;;17.80;99.90;;;;;;5009191;28;19929;-79
2022/09/24 07:55:25;;;;;;;;;;;18.70;99.90;;;;;;5007620;28;19988;-75
2022/09/24 07:57:55;;;;;;;;;;;18.70;99.90;;;;;;5008881;28;20397;-75
2022/09/24 08:00:23;;;;;;;;;;;18.80;99.90;;;;;;5008774;28;19929;-75
2022/09/24 08:02:52;;;;;;;;;;;19.40;99.90;;;;;;5009761;28;19929;-74
2022/09/24 08:05:20;;;;;;;;;;;20.20;99.90;;;;;;5008151;28;19929;-75
2022/09/24 08:07:51;;;;;;;;;;;20.80;99.90;;;;;;5008098;28;19952;-76
2022/09/24 08:10:18;;;;;;;;;;;21.40;99.90;;;;;;5009842;28;20025;-78
2022/09/24 08:12:46;;;;;;;;;;;21.80;96.40;;;;;;5004888;28;19940;-75
2022/09/24 08:15:14;;;;;;;;;;;21.80;95.70;;;;;;5005352;28;19937;-76
2022/09/24 08:17:42;;;;;;;;;;;22.10;94.40;;;;;;5005631;28;19937;-76
2022/09/24 08:20:48;;;;;;;;;;;22.30;92.50;;;;;;5007899;28;19930;-78
2022/09/24 08:23:39;;;;;;;;;;;22.30;90.40;;;;;;5018249;28;19930;-81
2022/09/24 08:26:07;;;;;;;;;;;22.20;87.40;;;;;;4997257;28;19934;-76
2022/09/24 08:28:34;;;;;;;;;;;22.80;86.30;;;;;;5010458;28;20515;-76
2022/09/24 08:31:07;;;;;;;;;;;23.30;83.90;;;;;;5006671;28;20257;-75
2022/09/24 08:33:35;;;;;;;;;;;23.70;76.60;;;;;;5010479;28;20031;-75
2022/09/24 08:36:06;;;;;;;;;;;23.30;77.10;;;;;;5012532;28;19987;-77
2022/09/24 08:38:34;;;;;;;;;;;23.30;79.60;;;;;;5001557;28;19933;-74
2022/09/24 08:41:08;;;;;;;;;;;23.60;78.00;;;;;;5008741;28;19929;-74
2022/09/24 08:43:43;;;;;;;;;;;23.80;76.30;;;;;;5013480;28;19930;-77
2022/09/24 08:49:05;;;;;;;;;;;23.90;74.10;;;;;;5013078;28;20203;-76
2022/09/24 08:51:36;;;;;;;;;;;23.70;70.90;;;;;;5010339;28;19929;-73
2022/09/24 08:54:07;;;;;;;;;;;23.80;72.50;;;;;;5006502;28;19930;-74
2022/09/24 08:56:36;;;;;;;;;;;24.10;71.10;;;;;;4996725;28;20397;-74
2022/09/24 08:59:10;;;;;;;;;;;24.50;70.30;;;;;;5012277;28;19929;-74
2022/09/24 09:01:46;;;;;;;;;;;25.10;69.00;;;;;;5007923;28;19936;-75
2022/09/24 09:04:23;;;;;;;;;;;25.80;66.40;;;;;;5014704;28;19929;-75
2022/09/24 09:07:00;;;;;;;;;;;26.30;65.30;;;;;;5015323;28;20041;-75
2022/09/24 09:09:39;;;;;;;;;;;26.70;62.20;;;;;;4994702;28;19929;-75
2022/09/24 09:12:12;;;;;;;;;;;26.80;61.00;;;;;;4994856;28;20386;-74
2022/09/24 09:14:43;;;;;;;;;;;27.10;60.10;;;;;;4994265;28;19957;-74
2022/09/24 09:17:21;;;;;;;;;;;27.40;59.10;;;;;;5004042;28;19930;-76
2022/09/24 09:19:55;;;;;;;;;;;27.50;57.70;;;;;;5005580;28;19933;-75
2022/09/24 09:22:25;;;;;;;;;;;27.50;57.40;;;;;;5004687;28;19930;-75
2022/09/24 09:24:53;;;;;;;;;;;27.30;57.00;;;;;;4994263;28;19953;-74
2022/09/24 09:27:21;;;;;;;;;;;27.20;57.50;;;;;;5008737;28;19929;-74
2022/09/24 09:29:53;;;;;;;;;;;27.20;56.20;;;;;;5013773;28;19948;-74
2022/09/24 09:32:32;;;;;;;;;;;26.60;56.30;;;;;;5013292;28;19933;-74
2022/09/24 09:35:03;;;;;;;;;;;25.20;58.50;;;;;;5010395;28;19933;-74
2022/09/24 09:37:36;;;;;;;;;;;23.70;61.40;;;;;;5010988;28;19930;-75
2022/09/24 09:40:12;;;;;;;;;;;22.50;65.10;;;;;;5012699;28;19964;-75
2022/09/24 09:42:39;;;;;;;;;;;21.90;67.30;;;;;;5010591;28;19936;-74
2022/09/24 09:45:18;;;;;;;;;;;21.60;69.30;;;;;;5006109;28;19936;-74
2022/09/24 09:47:49;;;;;;;;;;;21.10;70.30;;;;;;5012636;28;19929;-74
2022/09/24 09:50:23;;;;;;;;;;;20.60;71.50;;;;;;5014544;28;19929;-75
2022/09/24 09:52:51;;;;;;;;;;;20.20;72.40;;;;;;5012812;28;20019;-77
2022/09/24 09:55:24;;;;;;;;;;;20.40;73.70;;;;;;5012728;28;19937;-74
2022/09/24 09:57:51;;;;;;;;;;;21.10;71.00;;;;;;5013407;28;19936;-78
2022/09/24 10:00:27;;;;;;;;;;;22.40;71.10;;;;;;5009772;28;19929;-75
2022/09/24 10:02:56;;;;;;;;;;;23.90;66.30;;;;;;5002120;28;19936;-75
2022/09/24 10:05:27;;;;;;;;;;;25.00;63.10;;;;;;5013669;28;20306;-74
2022/09/24 10:07:56;;;;;;;;;;;24.70;62.50;;;;;;5013082;28;20334;-75
2022/09/24 10:10:25;;;;;;;;;;;23.60;63.30;;;;;;5012691;28;19952;-74
2022/09/24 10:12:54;;;;;;;;;;;22.50;63.60;;;;;;5011389;28;20440;-76
2022/09/24 10:15:23;;;;;;;;;;;21.90;68.30;;;;;;5011615;28;20444;-75
2022/09/24 10:17:53;;;;;;;;;;;21.40;70.00;;;;;;5013928;28;19933;-74
2022/09/24 10:20:26;;;;;;;;;;;21.20;70.50;;;;;;5014139;28;20357;-76
2022/09/24 10:22:56;;;;;;;;;;;21.20;71.60;;;;;;5012312;28;20303;-76
2022/09/24 10:25:25;;;;;;;;;;;21.20;71.40;;;;;;5010155;28;19933;-75
2022/09/24 10:27:53;;;;;;;;;;;21.10;71.00;;;;;;5005344;28;20377;-75
2022/09/24 10:30:35;;;;;;;;;;;20.80;71.30;;;;;;5011924;28;19930;-75
2022/09/24 10:33:04;;;;;;;;;;;21.30;71.20;;;;;;5007299;28;19930;-74
2022/09/24 10:35:37;;;;;;;;;;;21.30;70.00;;;;;;4992781;28;19963;-75
2022/09/24 10:38:15;;;;;;;;;;;21.10;69.70;;;;;;5014910;28;20312;-74
2022/09/24 10:40:43;;;;;;;;;;;20.80;72.00;;;;;;5011276;28;19929;-74
2022/09/24 10:43:16;;;;;;;;;;;20.30;71.10;;;;;;5005689;28;20394;-76
2022/09/24 10:46:03;;;;;;;;;;;19.90;73.10;;;;;;5012173;28;19929;-75
2022/09/24 10:48:35;;;;;;;;;;;20.00;73.60;;;;;;5027211;28;19964;-75
2022/09/24 10:51:10;;;;;;;;;;;20.00;72.70;;;;;;5013190;28;19933;-76
2022/09/24 10:53:47;;;;;;;;;;;19.80;74.50;;;;;;5011887;28;19929;-74
2022/09/24 10:56:23;;;;;;;;;;;19.80;72.90;;;;;;5014053;28;19929;-84
2022/09/24 10:59:07;;;;;;;;;;;20.10;72.60;;;;;;5010175;28;19929;-83
2022/09/24 11:01:43;;;;;;;;;;;20.50;70.20;;;;;;5027669;28;20416;-80
2022/09/24 11:04:46;;;;;;;;;;;20.40;70.70;;;;;;5011875;28;19933;-81
2022/09/24 11:07:39;;;;;;;;;;;20.00;73.00;;;;;;5003539;28;19940;-80
2022/09/24 11:10:15;;;;;;;;;;;19.60;73.70;;;;;;4987871;28;19930;-80
2022/09/24 11:12:49;;;;;;;;;;;19.60;73.70;;;;;;4995279;28;19929;-80
2022/09/24 11:15:29;;;;;;;;;;;19.80;73.50;;;;;;5007453;28;19929;-79
2022/09/24 11:18:14;;;;;;;;;;;20.20;73.40;;;;;;5009035;28;19929;-81
2022/09/24 11:20:48;;;;;;;;;;;21.20;71.20;;;;;;4992208;28;19969;-79
2022/09/24 11:23:38;;;;;;;;;;;22.00;68.30;;;;;;4998691;28;19929;-80
2022/09/24 11:26:13;;;;;;;;;;;21.80;66.60;;;;;;4967223;28;19969;-79
2022/09/24 11:29:01;;;;;;;;;;;21.50;67.50;;;;;;5006208;28;19936;-81
2022/09/24 11:31:35;;;;;;;;;;;21.50;69.60;;;;;;5013020;28;19938;-80
2022/09/24 11:34:14;;;;;;;;;;;21.60;68.20;;;;;;5027640;28;19936;-82
2022/09/24 11:36:53;;;;;;;;;;;22.90;66.80;;;;;;5009670;28;19973;-81
2022/09/24 11:39:34;;;;;;;;;;;24.70;60.60;;;;;;5010844;28;19933;-82
2022/09/24 11:42:08;;;;;;;;;;;26.30;57.60;;;;;;5011984;28;19929;-82
2022/09/24 11:45:13;;;;;;;;;;;27.50;56.00;;;;;;5010015;28;20023;-81
2022/09/24 11:47:54;;;;;;;;;;;27.80;54.30;;;;;;5001453;28;19929;-73
2022/09/24 11:50:30;;;;;;;;;;;26.90;54.60;;;;;;5011170;28;20379;-74
2022/09/24 16:40:58;;;;;;;2.70;2.25;;;11.60;99.90;;;;;;4932758;26;20033;-76
2022/09/24 16:43:26;;;;;;;2.85;2.55;;;11.60;99.90;;;;;;4889161;28;1794875;-75
2022/09/24 16:45:54;;;;;;;1.77;1.67;;;11.50;99.90;;;;;;4975126;28;20052;-76
2022/09/24 16:48:21;;;;;;;6.43;2.92;;;11.50;99.90;;;;;;4973463;28;20597;-75
2022/09/24 16:50:50;;;;;;;1.83;1.60;;;11.40;99.90;;;;;;4974033;28;20133;-77
2022/09/24 16:53:17;;;;;;;3.78;1.50;;;11.30;99.90;;;;;;4972770;28;20058;-77
2022/09/24 16:55:44;;;;;;;3.95;2.20;;;11.30;99.90;;;;;;4987517;28;20056;-75
2022/09/24 16:58:11;;;;;;;2.83;2.00;;;11.20;99.90;;;;;;4987540;28;20450;-75
2022/09/24 17:00:42;;;;;;;3.42;1.73;;;11.20;99.90;;;;;;5006673;28;20065;-77
2022/09/24 17:03:11;;;;;;;3.15;2.00;;;11.10;99.90;;;;;;4974278;28;20069;-81
2022/09/24 17:05:40;;;;;;;1.90;1.42;;;11.10;99.90;;;;;;4978822;28;20054;-73
2022/09/24 17:08:07;;;;;;;2.38;1.90;;;11.00;99.90;;;;;;4973902;28;20051;-74
2022/09/24 17:15:00;;;;;;;5.35;2.17;;;11.00;99.90;;;;;;4976871;28;20472;-73
2022/09/24 17:17:29;;;;;;;2.58;1.52;;;11.00;99.90;;;;;;4983405;28;21002;-82
2022/09/24 17:19:56;;;;;;;2.58;1.90;;;11.00;99.90;;;;;;4984740;28;20142;-80
2022/09/24 17:22:23;;;;;;;1.60;1.42;;;10.90;99.90;;;;;;5000902;28;20034;-81
2022/09/24 17:24:51;;;;;;;3.22;1.50;;;10.90;99.90;;;;;;5002753;28;20046;-80
2022/09/24 17:27:18;;;;;;;2.33;2.00;;;10.80;99.90;;;;;;4976149;28;20052;-79
2022/09/24 17:29:45;;;;;;;3.22;2.13;;;10.80;99.90;;;;;;4986323;28;20038;-78
2022/09/24 17:32:12;;;;;;;3.28;2.28;;;10.70;99.90;;;;;;4999485;28;20050;-83
2022/09/24 17:34:41;;;;;;;3.92;2.47;;;10.70;99.90;;;;;;4987735;28;20068;-73
2022/09/24 17:37:09;;;;;;;3.83;2.50;;;10.70;99.90;;;;;;4985231;28;20068;-74
2022/09/24 17:39:36;;;;;;;2.30;2.05;;;10.60;99.90;;;;;;4984577;28;20050;-73
2022/09/24 17:42:04;;;;;;;5.07;2.38;;;10.60;99.90;;;;;;4981618;28;20046;-73
2022/09/24 17:44:31;;;;;;;2.10;1.90;;;10.60;99.90;;;;;;4988906;28;20391;-72
2022/09/24 17:46:58;;;;;;;3.25;2.92;;;10.60;99.90;;;;;;4976460;28;20073;-79
2022/09/24 17:49:25;;;;;;;3.78;1.90;;;10.60;99.90;;;;;;4979973;28;20415;-79
2022/09/24 17:52:00;;;;;;;2.92;2.40;;;10.50;99.90;;;;;;4997754;28;20145;-80
2022/09/24 17:54:27;;;;;;;2.70;2.03;;;10.50;99.90;;;;;;4972385;28;20064;-81
2022/09/24 17:56:54;;;;;;;6.03;2.10;;;10.50;99.90;;;;;;4973134;28;20047;-74
2022/09/24 17:59:22;;;;;;;3.35;2.47;;;10.50;99.90;;;;;;4968189;28;20468;-73
2022/09/24 18:01:50;;;;;;;2.50;2.20;;;10.40;99.90;;;;;;4950055;28;20634;-73
2022/09/24 18:04:18;;;;;;;3.17;1.95;;;10.40;99.90;;;;;;4972641;28;20046;-74
2022/09/24 18:06:47;;;;;;;5.10;1.95;;;10.40;99.90;;;;;;4954618;28;20074;-74
2022/09/24 18:09:18;;;;;;;9.07;5.68;;;10.30;99.90;;;;;;4916332;28;20487;-74
2022/09/24 18:11:47;;;;;;;6.05;2.30;;;10.30;99.90;;;;;;4981113;28;20098;-75
2022/09/24 18:14:16;;;;;;;4.30;1.88;;;10.30;99.90;;;;;;4962153;28;20113;-74
2022/09/24 18:16:44;;;;;;;3.30;2.03;;;10.20;99.90;;;;;;4973037;28;20050;-75
2022/09/24 18:19:15;;;;;;;6.57;1.75;;;10.20;99.90;;;;;;4971635;28;20058;-75
2022/09/24 18:21:43;;;;;;;2.08;1.67;;;10.20;99.90;;;;;;4971973;28;20589;-74
2022/09/24 18:24:11;;;;;;;3.83;2.22;;;10.20;99.90;;;;;;4975853;28;20133;-74
2022/09/24 18:26:40;;;;;;;8.90;2.08;;;10.20;99.90;;;;;;4989758;28;20042;-74
2022/09/24 18:29:12;;;;;;;4.45;1.70;;;10.10;99.90;;;;;;4997460;28;20108;-75
2022/09/24 18:31:40;;;;;;;2.97;1.77;;;10.10;99.90;;;;;;4991301;28;20154;-75
2022/09/24 18:34:09;;;;;;;7.43;2.17;;;10.10;99.90;;;;;;5005645;28;20132;-75
2022/09/24 18:36:40;;;;;;;4.22;1.90;;;10.10;99.90;;;;;;4989122;28;20093;-74
2022/09/24 18:39:11;;;;;;;3.03;2.30;;;10.00;99.90;;;;;;4984235;28;20055;-75
2022/09/24 18:41:42;;;;;;;2.88;2.40;;;10.00;99.90;;;;;;4966503;28;20054;-79
2022/09/24 18:44:13;;;;;;;3.47;2.33;;;9.90;99.90;;;;;;4955726;28;20065;-81
2022/09/24 18:46:41;;;;;;;3.25;2.03;;;9.90;99.90;;;;;;4973741;28;20047;-79
2022/09/24 18:49:15;;;;;;;2.72;1.98;;;9.90;99.90;;;;;;4974737;28;20066;-80
2022/09/24 18:51:42;;;;;;;3.25;2.13;;;9.90;99.90;;;;;;4969533;28;20415;-82
2022/09/24 18:54:13;;;;;;;4.80;2.20;;;9.90;99.90;;;;;;4988332;28;20120;-80
2022/09/24 18:56:42;;;;;;;5.53;2.58;;;9.80;99.90;;;;;;4952393;28;20047;-79
2022/09/24 18:59:12;;;;;;;3.13;1.80;;;9.80;99.90;;;;;;4950641;28;20051;-81
2022/09/24 19:01:49;;;;;;;4.70;2.05;;;9.80;99.90;;;;;;4948474;28;20044;-80
2022/09/24 19:04:18;;;;;;;3.38;2.30;;;9.80;99.90;;;;;;4941068;28;20067;-79
2022/09/24 19:06:48;;;;;;;5.13;1.70;;;9.80;99.90;;;;;;4931026;29;20134;-76
2022/09/24 19:09:17;;;;;;;2.03;1.83;;;9.80;99.90;;;;;;4923119;29;20142;-74
2022/09/24 19:11:47;;;;;;;2.28;1.90;;;9.70;99.90;;;;;;4933761;29;20071;-73
2022/09/24 19:14:16;;;;;;;2.78;2.33;;;9.80;99.90;;;;;;4933331;29;20060;-74
2022/09/24 19:16:44;;;;;;;4.20;1.88;;;9.80;99.90;;;;;;4914564;29;20051;-81
2022/09/24 19:19:11;;;;;;;3.17;2.20;;;9.70;99.90;;;;;;4922109;29;20083;-80
2022/09/24 19:21:40;;;;;;;3.15;2.38;;;9.70;99.90;;;;;;4920844;29;20072;-79
2022/09/24 19:24:08;;;;;;;3.17;2.10;;;9.70;99.90;;;;;;4930287;29;20062;-80